Alakanuk, AK (99554)

11:08 PM AKDT on September 21, 2014 (GMT -0800)
Emmonak | Change Station
CLOSE
Current Station
Airport
Location: Emmonak,
Elevation: 13 ft
Nearby Weather Stations

Elev 13 ft 62.79 °N, 164.49 °W | Updated 12 minutes ago

Overcast
Overcast
43 °F
Feels Like 41 °F
N
4
Wind Variable Wind from WSW

Today
High -- | Low -- °F
--% Chance of Precip.
Yesterday
High -- | Low -- °F
Precip. -- in
8:39 AM 9:01 PM
Waning Crescent, 4% visible
Pressure 29.81 in
Visibility 5.0 miles
Clouds Scattered Clouds 2000 ft
Scattered Clouds 2500 ft
Overcast 8000 ft
Windchill 41 °F
Dew Point 36 °F
Humidity 76%
Rainfall 0.00 in
Snow Depth 6 in , 1 in , 1 in
UV 0 out of 12
Pollen Not available.
Air Quality Not available.
Flu Activity Not available.
METAR PAEM 220656Z AUTO 24003KT 5SM SCT020 SCT025 OVC080 06/02 A2981 RMK AO1

More Conditions Fewer Conditions

Pressure 29.81 in
Visibility 5.0 miles
Clouds Scattered Clouds 2000 ft
Scattered Clouds 2500 ft
Overcast 8000 ft
Windchill 41 °F
Dew Point 36 °F
Humidity 76%
Rainfall 0.00 in
Snow Depth 6 in , 1 in , 1 in
UV 0 out of 12
Pollen Not available.
Air Quality Not available.
Flu Activity Not available.
METAR PAEM 220656Z AUTO 24003KT 5SM SCT020 SCT025 OVC080 06/02 A2981 RMK AO1

More Conditions Fewer Conditions

10-Day Weather Forecast

Almanac

Astronomy

Sep. 21, 2014 Rise Set
Actual Time 8:39 AM AKDT 9:01 PM AKDT
Civil Twilight 7:54 AM AKDT 9:46 PM AKDT
Nautical Twilight 6:58 AM AKDT 10:41 PM AKDT
Astronomical Twilight 5:55 AM AKDT 11:43 PM AKDT
Moon 5:52 AM AKDT (9/21) 8:06 PM AKDT (9/21)
Length of Visible Light 13h 52m
Length of Day
12h 21m
Tomorrow will be 6m 2s shorter.
Waning Crescent, 4% of the Moon is Illuminated
Sep 22
Waning Crescent
Sep 24
New
Oct 1
First Quarter
Oct 8
Full
Oct 15
Last Quarter

Community

WunderPhotos

Upload Photos

1,755,392 photos uploaded!

Nearby

Snow Depth

Station Depth Elevation
Rocky Point 6 in 500 ft
Eagle Summit 1 in 3650 ft
Coldfoot 1 in 1040 ft
Gobblers Knob 0 in 2030 ft
Upper Chena 1 in 2850 ft

Earthquake Activity

City Distance Mag. Time & Date
No recent earthquake activity has been reported nearby.
Minimum magnitude displayed is 2.5.

Coastal Water Temperatures

Place Temperature
No Stations Reporting

Nearby Weather Stations